Time;durP1;ratioP1;P1;durP2;ratioP2;P2;SDS_P1;SDS_P2;PMS_P1;PMS_P2;Temp;Humidity;BMP_temperature;BMP_pressure;BME280_temperature;BME280_humidity;BME280_pressure;Samples;Min_cycle;Max_cycle;Signal;HPM_P1;HPM_P2
2022/12/01 00:00:54;;;;;;;55.80;48.30;;;;;;;1.15;69.44;101715.04;107999;1283;22629;-79
2022/12/01 00:03:34;;;;;;;62.30;48.90;;;;;;;1.15;69.38;101715.04;108109;1265;22449;-78
2022/12/01 00:06:20;;;;;;;56.40;47.70;;;;;;;1.14;69.32;101715.51;107965;1283;22034;-77
2022/12/01 00:11:48;;;;;;;56.10;45.90;;;;;;;1.08;69.60;101711.10;108428;1277;22043;-78
2022/12/01 00:14:20;;;;;;;52.90;46.90;;;;;;;1.10;69.64;101705.83;108179;1280;23781;-79
2022/12/01 00:16:49;;;;;;;52.50;46.50;;;;;;;1.11;69.50;101706.88;108243;1274;22408;-79
2022/12/01 00:19:19;;;;;;;55.20;47.80;;;;;;;1.09;69.43;101708.73;108424;1278;22898;-79
2022/12/01 00:21:53;;;;;;;50.40;44.60;;;;;;;1.08;69.42;101706.29;108372;1278;23078;-79
2022/12/01 00:24:32;;;;;;;54.10;45.90;;;;;;;1.07;69.55;101707.48;108555;1277;22197;-79
2022/12/01 00:27:05;;;;;;;50.30;43.10;;;;;;;1.09;69.66;101708.20;108461;1276;23569;-79
2022/12/01 00:29:42;;;;;;;52.20;46.50;;;;;;;1.11;69.75;101711.52;108326;1278;21938;-78
2022/12/01 00:32:15;;;;;;;58.20;45.80;;;;;;;1.14;69.80;101711.40;108631;1272;22703;-78
2022/12/01 00:34:45;;;;;;;49.00;43.70;;;;;;;1.18;69.80;101716.80;108863;1272;22009;-78
2022/12/01 00:37:15;;;;;;;53.80;44.70;;;;;;;1.21;69.84;101717.91;108702;1271;21929;-78
2022/12/01 00:39:47;;;;;;;51.80;44.70;;;;;;;1.24;69.87;101721.75;108714;1257;22704;-79
2022/12/01 00:42:19;;;;;;;48.10;42.80;;;;;;;1.24;69.75;101722.61;108650;1272;21954;-79
2022/12/01 00:44:48;;;;;;;50.80;43.10;;;;;;;1.24;69.73;101717.29;108721;1272;22973;-78
2022/12/01 00:47:22;;;;;;;47.30;42.20;;;;;;;1.25;69.76;101717.64;108721;1272;21960;-78
2022/12/01 00:49:53;;;;;;;49.70;42.70;;;;;;;1.24;69.76;101715.75;109021;1272;21954;-78
2022/12/01 00:52:22;;;;;;;50.30;44.50;;;;;;;1.25;69.84;101712.34;108828;1271;23606;-77
2022/12/01 00:55:06;;;;;;;49.20;43.30;;;;;;;1.26;69.78;101714.59;108643;1272;22742;-77
2022/12/01 00:57:35;;;;;;;49.10;42.90;;;;;;;1.26;69.84;101714.77;108736;1272;21922;-76
2022/12/01 01:00:06;;;;;;;53.40;45.10;;;;;;;1.27;69.87;101709.63;108852;1272;23593;-78
2022/12/01 01:02:39;;;;;;;54.70;46.60;;;;;;;1.27;69.84;101710.32;108654;1271;21923;-78
2022/12/01 01:05:11;;;;;;;52.40;44.80;;;;;;;1.26;69.88;101706.37;108655;1273;21919;-78
2022/12/01 01:07:40;;;;;;;51.90;43.20;;;;;;;1.27;69.90;101702.77;108702;1272;21916;-76
2022/12/01 01:10:10;;;;;;;47.70;42.80;;;;;;;1.27;69.88;101702.10;108717;1272;21956;-78
2022/12/01 01:12:40;;;;;;;47.80;40.40;;;;;;;1.27;69.96;101700.39;108643;1272;23147;-78
2022/12/01 01:15:10;;;;;;;52.20;44.00;;;;;;;1.28;69.99;101699.55;108957;1270;23741;-78
2022/12/01 01:17:40;;;;;;;50.70;42.30;;;;;;;1.31;70.03;101694.63;108698;1270;21930;-78
2022/12/01 01:20:15;;;;;;;47.90;42.50;;;;;;;1.33;70.00;101692.11;108740;1272;21919;-79
2022/12/01 01:22:45;;;;;;;48.80;42.30;;;;;;;1.34;69.99;101689.73;108824;1272;22202;-78
2022/12/01 01:25:14;;;;;;;48.90;41.90;;;;;;;1.36;70.00;101694.39;108772;1272;21946;-78
2022/12/01 01:27:46;;;;;;;48.10;41.50;;;;;;;1.35;69.90;101696.09;108517;1275;23046;-78
2022/12/01 01:30:16;;;;;;;47.00;41.00;;;;;;;1.36;69.99;101696.96;108818;1272;23065;-79
2022/12/01 01:32:46;;;;;;;52.40;42.00;;;;;;;1.36;70.02;101693.88;108720;1267;23043;-77
2022/12/01 01:35:21;;;;;;;47.10;39.70;;;;;;;1.38;70.08;101692.71;108708;1272;21939;-79
2022/12/01 01:37:53;;;;;;;45.00;39.10;;;;;;;1.40;70.14;101688.48;108670;1272;23610;-78
2022/12/01 01:40:22;;;;;;;45.70;39.90;;;;;;;1.42;69.99;101688.69;107746;1275;1261058;-79
2022/12/01 01:42:52;;;;;;;44.20;38.60;;;;;;;1.41;70.04;101686.96;108716;1272;21930;-79
2022/12/01 01:45:38;;;;;;;43.30;38.30;;;;;;;1.41;70.02;101688.33;108953;1273;21942;-79
2022/12/01 01:48:10;;;;;;;43.20;37.30;;;;;;;1.40;70.01;101689.15;108864;1272;22689;-79
2022/12/01 01:50:41;;;;;;;44.60;39.00;;;;;;;1.41;69.99;101686.61;108648;1272;22723;-79
2022/12/01 01:53:13;;;;;;;42.40;37.50;;;;;;;1.43;70.03;101684.42;108829;1275;22713;-79
2022/12/01 01:55:46;;;;;;;;;;;;;;;1.43;70.02;101681.16;109202;1272;21911;-79
2022/12/01 01:58:15;;;;;;;;;;;;;;;1.37;70.26;101678.63;108802;1271;21902;-79
2022/12/01 02:00:45;;;;;;;38.10;33.70;;;;;;;1.31;70.29;101676.80;108636;1272;21929;-79
2022/12/01 02:03:17;;;;;;;38.30;34.20;;;;;;;1.32;70.33;101677.16;108715;1265;22976;-78
2022/12/01 02:05:48;;;;;;;40.20;35.00;;;;;;;1.34;70.38;101673.77;108717;1273;21917;-79
2022/12/01 02:08:18;;;;;;;38.60;34.40;;;;;;;1.37;70.33;101674.86;108857;1272;21919;-77
2022/12/01 02:11:17;;;;;;;40.40;35.90;;;;;;;1.42;70.27;101674.45;108769;1272;23125;-78
2022/12/01 02:14:17;;;;;;;37.50;33.60;;;;;;;1.42;70.23;101675.48;108889;1272;22075;-78
2022/12/01 02:17:15;;;;;;;37.40;33.40;;;;;;;1.43;70.21;101674.14;108599;1272;21917;-78
2022/12/01 02:20:14;;;;;;;37.10;33.20;;;;;;;1.47;70.30;101677.30;108406;1280;23491;-78
2022/12/01 02:23:18;;;;;;;37.00;33.20;;;;;;;1.49;70.25;101674.42;108302;1281;23061;-79
2022/12/01 02:26:01;;;;;;;;;;;;;;;1.50;70.16;101679.25;108435;1281;24377;-79
2022/12/01 02:29:07;;;;;;;40.90;35.20;;;;;;;1.46;70.38;101679.51;108461;1281;21938;-80
2022/12/01 02:32:22;;;;;;;39.30;35.10;;;;;;;1.45;70.25;101684.99;108635;1280;21891;-80
2022/12/01 02:35:05;;;;;;;40.10;35.90;;;;;;;1.45;70.19;101681.05;108661;1279;22268;-80
2022/12/01 02:38:02;;;;;;;38.20;34.30;;;;;;;1.48;70.16;101682.13;108633;1280;21940;-79
2022/12/01 02:40:53;;;;;;;37.70;33.50;;;;;;;1.48;70.08;101678.52;107998;1286;21942;-80
2022/12/01 02:43:52;;;;;;;38.40;34.40;;;;;;;1.51;70.08;101677.55;107917;1286;21943;-80
2022/12/01 02:46:48;;;;;;;35.10;31.20;;;;;;;1.53;70.06;101677.26;107872;1286;21945;-80
2022/12/01 02:49:25;;;;;;;41.90;33.10;;;;;;;1.53;69.96;101676.56;107944;1286;23686;-80
2022/12/01 02:51:57;;;;;;;36.60;32.80;;;;;;;1.57;70.04;101678.02;107946;1286;21937;-80
2022/12/01 02:54:30;;;;;;;36.80;33.20;;;;;;;1.62;69.96;101676.91;107778;1286;22332;-80
2022/12/01 02:57:04;;;;;;;34.00;30.70;;;;;;;1.63;69.84;101676.08;107872;1280;21951;-79
2022/12/01 02:59:36;;;;;;;32.30;28.90;;;;;;;1.65;69.83;101674.92;108303;1281;21915;-80
2022/12/01 03:02:41;;;;;;;36.50;32.90;;;;;;;1.67;69.76;101668.95;108533;1279;23688;-80
2022/12/01 03:05:38;;;;;;;34.60;30.90;;;;;;;1.65;69.71;101668.58;108201;1281;22893;-79
2022/12/01 03:08:55;;;;;;;34.20;30.10;;;;;;;1.63;69.67;101662.86;108609;1280;21993;-79
2022/12/01 03:11:45;;;;;;;31.80;28.60;;;;;;;1.61;69.65;101659.56;108381;1278;23674;-80
2022/12/01 03:14:45;;;;;;;33.40;30.10;;;;;;;1.63;69.67;101660.63;108470;1281;22190;-82
2022/12/01 03:17:30;;;;;;;35.10;31.50;;;;;;;1.64;69.66;101657.58;108664;1273;22695;-79
2022/12/01 03:20:29;;;;;;;30.50;27.50;;;;;;;1.66;69.61;101658.31;109096;1274;21921;-88
2022/12/01 03:23:24;;;;;;;32.50;29.20;;;;;;;1.69;69.70;101652.17;109431;1272;22043;-80
2022/12/01 03:26:18;;;;;;;35.20;28.40;;;;;;;1.74;69.67;101653.14;108822;1271;22931;-78
2022/12/01 03:28:57;;;;;;;31.90;28.80;;;;;;;1.76;69.44;101653.52;108820;1272;22076;-79
2022/12/01 03:31:39;;;;;;;27.20;24.50;;;;;;;1.78;69.26;101649.44;108866;1273;21933;-79
2022/12/01 03:34:24;;;;;;;32.10;28.90;;;;;;;1.78;69.19;101647.02;108850;1272;23142;-79
2022/12/01 03:38:00;;;;;;;31.90;28.70;;;;;;;1.79;69.22;101650.29;108994;1273;23130;-79
2022/12/01 03:40:32;;;;;;;33.20;29.80;;;;;;;1.79;69.15;101647.38;107839;1288;21969;-79
2022/12/01 03:43:15;;;;;;;34.30;30.80;;;;;;;1.82;69.09;101647.09;107862;1286;22967;-78
2022/12/01 03:46:05;;;;;;;34.20;30.50;;;;;;;1.86;68.99;101647.54;107735;1286;23005;-78
2022/12/01 03:48:42;;;;;;;34.80;31.30;;;;;;;1.89;68.84;101647.24;107763;1286;21921;-79
2022/12/01 03:51:35;;;;;;;37.00;33.20;;;;;;;1.92;68.74;101650.05;107502;1292;23080;-77
2022/12/01 03:54:48;;;;;;;33.30;29.80;;;;;;;1.90;68.59;101652.06;107460;1292;22658;-78
2022/12/01 03:57:28;;;;;;;33.50;30.20;;;;;;;1.93;68.56;101656.23;107604;1291;23591;-78
2022/12/01 03:59:57;;;;;;;34.00;30.50;;;;;;;1.94;68.62;101657.11;107238;1295;23078;-78
2022/12/01 04:02:49;;;;;;;33.50;30.10;;;;;;;1.94;68.42;101656.09;106904;1296;23039;-79
2022/12/01 04:05:37;;;;;;;32.30;29.10;;;;;;;1.93;68.48;101657.79;106602;1303;21969;-77
2022/12/01 04:08:36;;;;;;;31.30;28.10;;;;;;;1.93;68.42;101659.67;106134;1304;21943;-80
2022/12/01 04:14:33;;;;;;;30.10;27.10;;;;;;;1.92;68.32;101661.70;106262;1303;21964;-79
2022/12/01 04:17:05;;;;;;;32.40;29.10;;;;;;;1.92;68.25;101661.19;106471;1293;23171;-79
2022/12/01 04:19:51;;;;;;;36.90;32.90;;;;;;;1.91;68.24;101660.84;108183;1281;22198;-78
2022/12/01 04:22:23;;;;;;;34.50;31.20;;;;;;;1.92;68.22;101657.07;108169;1280;23696;-79
2022/12/01 04:24:56;;;;;;;28.60;25.80;;;;;;;1.95;68.23;101661.41;108418;1277;21924;-79
2022/12/01 04:27:38;;;;;;;30.40;27.40;;;;;;;1.95;68.28;101663.64;108923;1272;22690;-80
2022/12/01 04:30:24;;;;;;;;;;;;;;;;;;;;;
2022/12/01 04:33:07;;;;;;;31.60;28.30;;;;;;;1.94;68.25;101657.12;108915;1272;23666;-79
2022/12/01 04:36:04;;;;;;;32.90;29.60;;;;;;;1.90;68.24;101653.44;108728;1272;21950;-78
2022/12/01 04:38:36;;;;;;;30.10;27.20;;;;;;;1.90;68.25;101656.68;108748;1269;23578;-78
2022/12/01 04:41:13;;;;;;;30.80;27.60;;;;;;;1.90;68.24;101656.54;108833;1272;21985;-78
2022/12/01 04:44:11;;;;;;;30.60;27.50;;;;;;;1.88;68.12;101655.29;108937;1273;21945;-79
2022/12/01 04:46:55;;;;;;;30.70;27.60;;;;;;;1.87;68.15;101657.15;109013;1272;21948;-80
2022/12/01 04:49:39;;;;;;;30.60;27.40;;;;;;;1.86;68.13;101654.39;109001;1272;22723;-79
2022/12/01 04:52:37;;;;;;;34.80;31.20;;;;;;;1.85;68.24;101652.81;108567;1275;21973;-79
2022/12/01 04:55:14;;;;;;;33.70;30.20;;;;;;;1.87;68.29;101652.69;108531;1275;22384;-78
2022/12/01 04:57:51;;;;;;;;;;;;;;;1.87;68.28;101651.48;108568;1277;22138;-78
2022/12/01 05:00:28;;;;;;;30.50;27.60;;;;;;;1.83;68.50;101651.57;108660;1275;22154;-80
2022/12/01 05:03:07;;;;;;;32.70;29.50;;;;;;;1.86;68.47;101652.33;108763;1275;21949;-79
2022/12/01 05:06:38;;;;;;;32.80;29.40;;;;;;;1.88;68.39;101654.43;108420;1277;21929;-79
2022/12/01 05:09:16;;;;;;;33.60;30.40;;;;;;;1.89;68.38;101653.26;108803;1275;21935;-79
2022/12/01 05:11:49;;;;;;;35.50;32.00;;;;;;;1.90;68.35;101656.02;108697;1275;21979;-79
2022/12/01 05:14:22;;;;;;;32.10;29.10;;;;;;;1.93;68.27;101653.14;108537;1274;22355;-79
2022/12/01 05:22:55;;;;;;;;;;;;;;;;;;;;;
2022/12/01 05:25:59;;;;;;;32.40;29.00;;;;;;;1.96;68.32;101648.21;108510;1277;21931;-78
2022/12/01 05:28:33;;;;;;;34.30;30.60;;;;;;;1.98;68.36;101648.95;108520;1280;22032;-79
2022/12/01 05:31:29;;;;;;;33.10;29.70;;;;;;;1.97;68.28;101645.84;108590;1271;23055;-78
2022/12/01 05:34:02;;;;;;;35.20;31.50;;;;;;;1.95;68.25;101647.86;108452;1278;21975;-79
2022/12/01 05:36:41;;;;;;;36.10;32.40;;;;;;;1.96;68.35;101647.35;108393;1278;21968;-78
2022/12/01 05:39:33;;;;;;;;;;;;;;;;;;;;;
2022/12/01 05:42:25;;;;;;;35.00;31.30;;;;;;;1.95;68.37;101644.77;108400;1281;21949;-79
2022/12/01 05:45:19;;;;;;;34.40;31.00;;;;;;;1.94;68.32;101645.79;108622;1278;23179;-78
2022/12/01 05:48:01;;;;;;;38.00;34.40;;;;;;;1.95;68.31;101644.42;108514;1280;22067;-78
2022/12/01 05:50:58;;;;;;;42.40;38.20;;;;;;;1.95;68.39;101642.36;108552;1277;21943;-80
2022/12/01 05:53:50;;;;;;;38.80;35.10;;;;;;;1.95;68.47;101645.12;108839;1278;23087;-81
2022/12/01 05:57:07;;;;;;;34.90;31.30;;;;;;;1.94;68.50;101644.75;108879;1275;21998;-80
2022/12/01 06:00:45;;;;;;;47.20;42.00;;;;;;;1.93;68.55;101648.00;108862;1275;22912;-80
2022/12/01 06:03:30;;;;;;;46.00;41.00;;;;;;;1.94;68.63;101649.73;108860;1279;23064;-81
2022/12/01 06:06:11;;;;;;;41.80;37.30;;;;;;;1.97;68.56;101650.14;108868;1275;21887;-81
2022/12/01 06:08:55;;;;;;;40.60;36.50;;;;;;;2.00;68.55;101653.63;109045;1275;21948;-80
2022/12/01 06:11:35;;;;;;;38.50;34.70;;;;;;;2.01;68.61;101659.30;108937;1275;21924;-82
2022/12/01 06:14:14;;;;;;;37.90;34.10;;;;;;;2.00;68.49;101661.17;109045;1275;21923;-80
2022/12/01 06:16:54;;;;;;;41.20;37.20;;;;;;;2.00;68.53;101662.88;108788;1272;23042;-81
2022/12/01 06:19:38;;;;;;;;;;;;;;;;;;;;;
2022/12/01 06:22:24;;;;;;;41.60;37.30;;;;;;;1.97;68.67;101668.16;108951;1273;21929;-81
2022/12/01 06:24:58;;;;;;;40.30;36.20;;;;;;;1.99;68.74;101669.58;108939;1275;22714;-81
2022/12/01 06:27:57;;;;;;;38.50;34.70;;;;;;;2.00;68.59;101664.77;109187;1275;22598;-83
2022/12/01 06:31:29;;;;;;;38.70;34.60;;;;;;;1.94;68.70;101670.17;109408;1273;21938;-78
2022/12/01 06:34:10;;;;;;;39.40;35.30;;;;;;;1.95;68.95;101673.97;108839;1262;23111;-80
2022/12/01 06:37:45;;;;;;;40.10;35.80;;;;;;;2.02;69.05;101677.00;109257;1273;23000;-82
2022/12/01 06:44:38;;;;;;;37.60;33.60;;;;;;;2.06;68.81;101681.54;109147;1275;22653;-82
2022/12/01 06:47:23;;;;;;;41.20;36.00;;;;;;;2.09;68.79;101680.75;108701;1278;21954;-81
2022/12/01 06:50:20;;;;;;;;;;;;;;;;;;;;;
2022/12/01 06:53:38;;;;;;;38.40;34.40;;;;;;;2.15;68.67;101682.55;109166;1278;21950;-82
2022/12/01 06:56:11;;;;;;;38.60;34.60;;;;;;;2.15;68.43;101684.80;109231;1281;21947;-83
2022/12/01 06:58:52;;;;;;;40.60;36.30;;;;;;;2.15;68.54;101685.99;109007;1281;22056;-83
2022/12/01 07:01:27;;;;;;;41.00;36.80;;;;;;;2.17;68.62;101682.42;109092;1280;22070;-83
2022/12/01 07:04:02;;;;;;;40.60;36.60;;;;;;;2.22;68.51;101680.27;109079;1278;22630;-82
2022/12/01 07:06:44;;;;;;;39.10;35.30;;;;;;;2.23;68.38;101682.38;109284;1272;22011;-82
2022/12/01 07:09:33;;;;;;;39.00;35.00;;;;;;;2.21;68.30;101681.98;109556;1273;21914;-83
2022/12/01 07:12:48;;;;;;;43.10;37.90;;;;;;;2.20;68.39;101683.68;109148;1279;21986;-82
2022/12/01 07:16:14;;;;;;;41.30;36.90;;;;;;;2.19;68.42;101681.09;108604;1288;23751;-83
2022/12/01 07:19:32;;;;;;;;;;;;;;;;;;;;;
2022/12/01 07:22:37;;;;;;;45.60;40.80;;;;;;;2.25;68.38;101691.33;108085;1289;22456;-82
2022/12/01 07:25:47;;;;;;;43.80;38.60;;;;;;;2.24;68.42;101694.41;107827;1289;21944;-82
2022/12/01 07:29:15;;;;;;;49.60;44.50;;;;;;;2.22;68.48;101703.48;108001;1290;21955;-81
2022/12/01 07:32:29;;;;;;;45.90;41.30;;;;;;;2.25;68.59;101708.33;107209;1301;24396;-82
2022/12/01 07:35:15;;;;;;;;;;;;;;;;;;;;;
2022/12/01 07:38:03;;;;;;;36.70;32.80;;;;;;;2.25;68.26;101698.20;107472;1299;21969;-81
2022/12/01 07:41:01;;;;;;;;;;;;;;;;;;;;;
2022/12/01 07:43:42;;;;;;;;;;;;;;;;;;;;;
2022/12/01 07:46:35;;;;;;;43.80;38.30;;;;;;;2.27;68.42;101705.80;107844;1296;22006;-82
2022/12/01 07:49:33;;;;;;;48.70;43.30;;;;;;;2.28;68.45;101707.02;107635;1292;23946;-81
2022/12/01 07:52:25;;;;;;;43.00;38.20;;;;;;;2.26;68.46;101706.99;108662;1281;21930;-82
2022/12/01 07:55:49;;;;;;;40.90;36.60;;;;;;;2.27;68.52;101709.58;108900;1281;21982;-83
2022/12/01 07:59:05;;;;;;;;;;;;;;;;;;;;;
2022/12/01 08:01:51;;;;;;;43.50;39.00;;;;;;;2.29;68.62;101712.01;108960;1280;23091;-81
2022/12/01 08:04:44;;;;;;;;;;;;;;;;;;;;;
2022/12/01 08:11:11;;;;;;;47.30;38.30;;;;;;;2.27;68.61;101705.80;108905;1282;23049;-81
2022/12/01 08:14:11;;;;;;;43.70;37.60;;;;;;;2.25;68.52;101706.11;108613;1282;22095;-81
2022/12/01 08:17:38;;;;;;;39.60;35.30;;;;;;;2.20;68.56;101707.73;108512;1289;21784;-83
2022/12/01 08:20:35;;;;;;;42.50;37.60;;;;;;;2.16;68.81;101705.93;107951;1286;22747;-80
2022/12/01 08:23:17;;;;;;;46.20;39.50;;;;;;;2.17;69.01;101705.78;107221;1296;23080;-80
2022/12/01 08:26:20;;;;;;;40.00;31.00;;;;;;;2.22;69.08;101706.91;107695;1297;21952;-81
2022/12/01 08:29:29;;;;;;;50.40;37.20;;;;;;;2.23;69.03;101706.24;108021;1298;22628;-81
2022/12/01 08:32:28;;;;;;;;;;;;;;;;;;;;;
2022/12/01 08:35:08;;;;;;;55.10;38.30;;;;;;;2.28;69.20;101710.27;107653;1289;23605;-80
2022/12/01 08:38:01;;;;;;;;;;;;;;;2.31;69.28;101713.60;107691;1288;21945;-79
2022/12/01 08:40:55;;;;;;;47.60;36.50;;;;;;;2.27;69.38;101710.94;107418;1293;22244;-80
2022/12/01 08:44:00;;;;;;;;;;;;;;;;;;;;;
2022/12/01 08:47:02;;;;;;;44.80;37.70;;;;;;;2.32;69.63;101710.52;107987;1290;22257;-81
2022/12/01 08:49:54;;;;;;;;;;;;;;;;;;;;;
2022/12/01 08:52:46;;;;;;;44.40;39.10;;;;;;;2.44;69.74;101712.12;108326;1283;22089;-81
2022/12/01 08:55:44;;;;;;;47.40;36.90;;;;;;;2.50;69.78;101715.15;108044;1291;22008;-81
2022/12/01 08:58:17;;;;;;;46.30;37.80;;;;;;;2.55;69.68;101717.45;107924;1292;21945;-81
2022/12/01 09:00:51;;;;;;;44.70;37.20;;;;;;;2.56;69.62;101720.57;108231;1288;21805;-80
2022/12/01 09:03:20;;;;;;;45.80;39.20;;;;;;;2.58;69.63;101720.41;108233;1287;22716;-81
2022/12/01 09:05:54;;;;;;;42.90;37.70;;;;;;;2.61;69.74;101721.50;108187;1287;22196;-80
2022/12/01 09:09:11;;;;;;;55.10;40.00;;;;;;;2.63;69.84;101716.89;108772;1281;21967;-79
2022/12/01 09:12:09;;;;;;;60.50;39.20;;;;;;;2.64;69.73;101718.11;108718;1281;23776;-82
2022/12/01 09:15:49;;;;;;;;;;;;;;;;;;;;;
2022/12/01 09:19:44;;;;;;;64.20;41.00;;;;;;;2.63;69.87;101710.36;109244;1278;21947;-82
2022/12/01 09:23:05;;;;;;;63.10;40.90;;;;;;;2.67;70.02;101708.38;109267;1280;22472;-84
2022/12/01 09:26:22;;;;;;;;;;;;;;;;;;;;;
2022/12/01 09:30:00;;;;;;;;;;;;;;;;;;;;;
2022/12/01 09:33:18;;;;;;;47.50;34.70;;;;;;;2.79;69.89;101696.20;108606;1288;23600;-84
2022/12/01 09:36:43;;;;;;;43.10;35.70;;;;;;;2.79;69.95;101690.86;108867;1286;21969;-80
2022/12/01 09:40:29;;;;;;;43.10;35.40;;;;;;;2.81;70.07;101685.21;108751;1282;21956;-86
2022/12/01 09:44:23;;;;;;;;;;;;;;;;;;;;;
2022/12/01 09:47:41;;;;;;;40.60;32.50;;;;;;;2.82;70.31;101680.42;109561;1272;21930;-84
2022/12/01 09:51:04;;;;;;;;;;;;;;;;;;;;;
2022/12/01 09:54:08;;;;;;;;;;;;;;;;;;;;;
2022/12/01 09:57:03;;;;;;;33.40;28.60;;;;;;;2.98;69.92;101677.56;109582;1272;21932;-82
2022/12/01 10:00:10;;;;;;;40.80;30.40;;;;;;;2.96;69.92;101678.23;109518;1272;21935;-83
2022/12/01 10:03:47;;;;;;;35.90;30.40;;;;;;;2.98;70.06;101677.05;109545;1274;21950;-83
2022/12/01 10:07:43;;;;;;;37.80;31.20;;;;;;;3.01;70.01;101677.25;109849;1272;21946;-81
2022/12/01 10:11:44;;;;;;;35.30;30.30;;;;;;;3.07;70.22;101678.36;108980;1282;21978;-81
2022/12/01 10:14:55;;;;;;;33.20;29.40;;;;;;;3.15;70.22;101677.10;108855;1281;21832;-79
2022/12/01 10:19:22;;;;;;;40.10;30.20;;;;;;;3.20;70.31;101675.97;108415;1292;21703;-85
2022/12/01 10:24:00;;;;;;;36.20;30.10;;;;;;;3.28;70.28;101675.73;107642;1301;21961;-82
2022/12/01 10:27:25;;;;;;;31.20;27.40;;;;;;;3.35;69.95;101674.28;106952;1304;21975;-84
2022/12/01 10:31:01;;;;;;;35.80;29.00;;;;;;;3.47;69.47;101671.84;106582;1308;543997;-83
2022/12/01 10:35:35;;;;;;;;;;;;;;;;;;;;;
2022/12/01 10:39:42;;;;;;;;;;;;;;;;;;;;;
2022/12/01 10:43:06;;;;;;;30.10;24.00;;;;;;;3.35;69.49;101650.72;103666;1289;6563328;-83
2022/12/01 10:47:54;;;;;;;49.10;24.70;;;;;;;3.34;69.18;101649.16;107931;1286;21958;-83
2022/12/01 10:51:21;;;;;;;32.30;28.30;;;;;;;3.37;69.41;101639.04;106970;1300;21974;-82
2022/12/01 10:54:29;;;;;;;;;;;;;;;;;;;;;
2022/12/01 10:57:41;;;;;;;;;;;;;;;;;;;;;
2022/12/01 11:00:37;;;;;;;31.90;25.00;;;;;;;3.50;68.98;101628.17;107825;1292;22558;-83
2022/12/01 11:03:36;;;;;;;27.30;23.30;;;;;;;3.56;68.93;101631.34;107811;1292;22699;-83
2022/12/01 11:06:24;;;;;;;;;;;;;;;3.59;68.61;101629.48;107952;1291;22097;-83
2022/12/01 11:09:07;;;;;;;29.90;24.40;;;;;;;3.51;68.65;101629.58;107876;1283;22409;-82
2022/12/01 11:12:23;;;;;;;23.60;19.00;;;;;;;3.54;68.61;101628.56;108534;1278;23615;-81
2022/12/01 11:15:32;;;;;;;22.10;18.80;;;;;;;3.59;68.52;101627.92;108964;1278;21964;-86
2022/12/01 11:19:02;;;;;;;;;;;;;;;;;;;;;
2022/12/01 11:22:49;;;;;;;22.30;18.00;;;;;;;3.56;67.73;101624.64;108140;1289;21946;-84
2022/12/01 11:26:52;;;;;;;21.00;16.20;;;;;;;3.46;67.39;101626.05;108154;1288;21956;-83
2022/12/01 11:30:57;;;;;;;;;;;;;;;;;;;;;
2022/12/01 11:34:37;;;;;;;19.00;15.60;;;;;;;3.39;67.30;101620.82;106544;1304;22015;-84
2022/12/01 11:38:35;;;;;;;;;;;;;;;;;;;;;
2022/12/01 11:42:03;;;;;;;15.80;13.10;;;;;;;3.43;66.87;101624.31;106549;1301;22062;-84
2022/12/01 11:45:16;;;;;;;;;;;;;;;;;;;;;
2022/12/01 11:48:39;;;;;;;18.40;15.70;;;;;;;3.39;66.27;101634.73;106879;1303;22025;-85
2022/12/01 11:52:33;;;;;;;;;;;;;;;;;;;;;
2022/12/01 11:55:26;;;;;;;21.70;17.90;;;;;;;3.41;66.30;101629.61;106647;1307;21968;-85
2022/12/01 11:58:24;;;;;;;;;;;;;;;;;;;;;
2022/12/01 12:10:35;;;;;;;;;;;;;;;;;;;;;
2022/12/01 12:14:46;;;;;;;;;;;;;;;;;;;;;
2022/12/01 12:19:49;;;;;;;30.70;21.60;;;;;;;3.34;66.02;101624.88;106877;1303;22065;-83
2022/12/01 12:30:56;;;;;;;;;;;;;;;;;;;;;
2022/12/01 12:35:15;;;;;;;;;;;;;;;;;;;;;
2022/12/01 12:39:24;;;;;;;;;;;;;;;;;;;;;
2022/12/01 12:43:07;;;;;;;22.70;19.40;;;;;;;3.31;65.90;101627.60;106918;1300;22039;-82
2022/12/01 12:47:03;;;;;;;;;;;;;;;;;;;;;
2022/12/01 12:50:42;;;;;;;23.60;19.50;;;;;;;3.25;65.76;101625.65;106858;1301;22005;-83
2022/12/01 12:53:56;;;;;;;23.50;19.90;;;;;;;3.23;65.79;101624.91;106755;1303;21973;-82
2022/12/01 12:57:08;;;;;;;26.20;22.40;;;;;;;3.24;65.73;101627.52;106679;1306;21964;-82
2022/12/01 13:00:59;;;;;;;;;;;;;;;;;;;;;
2022/12/01 13:04:34;;;;;;;;;;;;;;;;;;;;;
2022/12/01 13:07:51;;;;;;;22.10;19.80;;;;;;;3.25;65.65;101634.58;106784;1306;21991;-82
2022/12/01 13:11:15;;;;;;;22.90;20.50;;;;;;;3.21;65.49;101634.52;107250;1299;21973;-82
2022/12/01 13:15:23;;;;;;;;;;;;;;;;;;;;;
2022/12/01 13:18:25;;;;;;;17.80;16.00;;;;;;;3.22;65.65;101629.54;107083;1301;21987;-83
2022/12/01 13:21:22;;;;;;;;;;;;;;;3.17;65.13;101625.02;107085;1300;22032;-84
2022/12/01 13:25:01;;;;;;;;;;;;;;;;;;;;;
2022/12/01 13:28:37;;;;;;;33.70;23.70;;;;;;;3.07;65.43;101625.06;107599;1298;22185;-83
2022/12/01 13:32:20;;;;;;;;;;;;;;;;;;;;;
2022/12/01 13:36:26;;;;;;;;;;;;;;;;;;;;;
2022/12/01 13:41:17;;;;;;;17.00;15.00;;;;;;;3.12;65.25;101628.73;109027;1283;22076;-87
2022/12/01 13:45:58;;;;;;;;;;;;;;;;;;;;;
2022/12/01 13:49:38;;;;;;;;;;;;;;;;;;;;;
2022/12/01 14:12:14;;;;;;;14.50;13.10;;;;;;;4.32;59.15;101631.75;106872;1303;550063;-85
2022/12/01 14:16:38;;;;;;;;;;;;;;;;;;;;;
2022/12/01 14:21:29;;;;;;;;;;;;;;;;;;;;;
2022/12/01 14:24:28;;;;;;;16.40;14.80;;;;;;;3.40;59.96;101621.52;106333;1299;22015;-82
2022/12/01 14:27:14;;;;;;;18.10;16.30;;;;;;;3.32;60.41;101627.62;106147;1307;22956;-82
2022/12/01 14:34:25;;;;;;;;;;;;;;;;;;;;;
2022/12/01 14:38:20;;;;;;;16.70;15.00;;;;;;;3.21;61.39;101630.05;105957;1313;23093;-84
2022/12/01 14:41:48;;;;;;;;;;;;;;;;;;;;;
2022/12/01 14:56:24;;;;;;;;;;;;;;;;;;;;;
2022/12/01 15:00:19;;;;;;;10.60;9.50;;;;;;;4.15;56.08;101629.00;105780;1284;3805792;-87
2022/12/01 15:03:55;;;;;;;;;;;;;;;;;;;;;
2022/12/01 15:07:30;;;;;;;15.10;13.50;;;;;;;3.36;58.13;101628.52;107085;1301;21962;-85
2022/12/01 15:10:56;;;;;;;14.00;14.30;;;;;;;3.28;58.72;101628.41;106433;1303;21992;-85
2022/12/01 15:14:31;;;;;;;14.50;12.80;;;;;;;3.24;59.27;101631.46;106251;1306;21968;-86
2022/12/01 15:18:06;;;;;;;;;;;;;;;;;;;;;
2022/12/01 15:21:27;;;;;;;;;;;;;;;;;;;;;
2022/12/01 15:24:12;;;;;;;15.50;13.90;;;;;;;3.11;59.83;101627.17;106134;1310;23135;-85
2022/12/01 15:27:09;;;;;;;18.70;16.70;;;;;;;3.08;59.97;101624.05;106089;1306;23668;-85
2022/12/01 15:30:18;;;;;;;21.70;19.40;;;;;;;3.01;60.23;101625.66;106048;1309;23923;-85
2022/12/01 15:33:37;;;;;;;;;;;;;;;;;;;;;
2022/12/01 15:36:52;;;;;;;;;;;;;;;;;;;;;
2022/12/01 15:42:50;;;;;;;27.40;24.10;;;;;;;2.95;61.18;101613.02;105985;1309;23637;-86
2022/12/01 15:50:31;;;;;;;;;;;;;;;;;;;;;
2022/12/01 15:53:31;;;;;;;28.60;25.60;;;;;;;2.95;61.66;101614.23;105829;1312;22011;-84
2022/12/01 15:56:06;;;;;;;32.30;28.70;;;;;;;2.92;61.73;101617.30;105921;1313;22025;-84
2022/12/01 15:58:48;;;;;;;31.90;28.40;;;;;;;2.93;61.83;101616.60;106068;1313;22163;-81
2022/12/01 16:02:20;;;;;;;31.40;28.20;;;;;;;2.90;61.88;101621.05;105891;1310;22036;-83
2022/12/01 16:05:13;;;;;;;28.50;25.70;;;;;;;2.86;62.10;101621.33;105851;1313;23807;-82
2022/12/01 16:08:02;;;;;;;30.50;27.40;;;;;;;2.83;62.26;101616.98;106011;1312;21988;-83
2022/12/01 16:11:46;;;;;;;;;;;;;;;;;;;;;
2022/12/01 16:15:05;;;;;;;33.20;29.10;;;;;;;2.81;62.71;101618.16;105706;1316;22003;-82
2022/12/01 16:17:55;;;;;;;32.60;29.10;;;;;;;2.84;62.86;101615.79;105404;1316;22059;-84
2022/12/01 16:21:09;;;;;;;36.00;32.40;;;;;;;2.87;62.87;101615.86;105766;1310;21975;-83
2022/12/01 16:23:41;;;;;;;36.10;32.50;;;;;;;2.87;63.00;101615.33;106001;1310;22223;-85
2022/12/01 16:26:12;;;;;;;35.20;31.40;;;;;;;2.91;62.89;101614.17;106065;1304;21970;-84
2022/12/01 16:28:40;;;;;;;32.80;29.50;;;;;;;2.91;62.89;101617.11;106286;1307;21965;-82
2022/12/01 16:32:12;;;;;;;;;;;;;;;;;;;;;
2022/12/01 16:35:30;;;;;;;;;;;;;;;;;;;;;
2022/12/01 16:38:45;;;;;;;30.60;27.00;;;;;;;2.79;63.23;101608.66;108823;1280;23051;-86
2022/12/01 16:41:29;;;;;;;27.20;24.50;;;;;;;2.83;63.21;101610.63;108848;1281;21940;-85
2022/12/01 16:49:31;;;;;;;;;;;;;;;;;;;;;